sensor_id;sensor_type;location;lat;lon;timestamp;P1;durP1;ratioP1;P2;durP2;ratioP2
10461;SDS011;5278;42.656;23.374;2023-06-22T00:00:09;9.63;;;8.67;;
10461;SDS011;5278;42.656;23.374;2023-06-22T00:02:38;12.17;;;8.33;;
10461;SDS011;5278;42.656;23.374;2023-06-22T00:05:05;9.80;;;8.27;;
10461;SDS011;5278;42.656;23.374;2023-06-22T00:07:33;8.53;;;7.73;;
10461;SDS011;5278;42.656;23.374;2023-06-22T00:10:00;10.73;;;8.67;;
10461;SDS011;5278;42.656;23.374;2023-06-22T00:12:27;9.77;;;8.80;;
10461;SDS011;5278;42.656;23.374;2023-06-22T00:14:55;9.40;;;8.43;;
10461;SDS011;5278;42.656;23.374;2023-06-22T00:17:21;10.57;;;8.37;;
10461;SDS011;5278;42.656;23.374;2023-06-22T00:19:50;9.70;;;8.80;;
10461;SDS011;5278;42.656;23.374;2023-06-22T00:22:20;10.27;;;8.63;;
10461;SDS011;5278;42.656;23.374;2023-06-22T00:24:54;10.03;;;9.10;;
10461;SDS011;5278;42.656;23.374;2023-06-22T00:27:22;10.67;;;8.70;;
10461;SDS011;5278;42.656;23.374;2023-06-22T00:29:49;9.67;;;8.67;;
10461;SDS011;5278;42.656;23.374;2023-06-22T00:32:17;9.17;;;8.30;;
10461;SDS011;5278;42.656;23.374;2023-06-22T00:34:46;9.67;;;8.60;;
10461;SDS011;5278;42.656;23.374;2023-06-22T00:37:14;11.13;;;9.03;;
10461;SDS011;5278;42.656;23.374;2023-06-22T00:39:42;10.93;;;9.33;;
10461;SDS011;5278;42.656;23.374;2023-06-22T00:42:10;10.37;;;9.27;;
10461;SDS011;5278;42.656;23.374;2023-06-22T00:44:36;9.50;;;8.60;;
10461;SDS011;5278;42.656;23.374;2023-06-22T00:47:03;9.67;;;8.67;;
10461;SDS011;5278;42.656;23.374;2023-06-22T00:49:31;12.07;;;9.77;;
10461;SDS011;5278;42.656;23.374;2023-06-22T00:51:58;12.33;;;9.73;;
10461;SDS011;5278;42.656;23.374;2023-06-22T00:54:30;9.97;;;8.90;;
10461;SDS011;5278;42.656;23.374;2023-06-22T00:56:57;9.17;;;7.83;;
10461;SDS011;5278;42.656;23.374;2023-06-22T00:59:25;8.87;;;7.53;;
10461;SDS011;5278;42.656;23.374;2023-06-22T01:01:53;8.37;;;7.57;;
10461;SDS011;5278;42.656;23.374;2023-06-22T01:04:20;9.10;;;8.03;;
10461;SDS011;5278;42.656;23.374;2023-06-22T01:06:51;9.10;;;8.17;;
10461;SDS011;5278;42.656;23.374;2023-06-22T01:09:27;8.17;;;7.37;;
10461;SDS011;5278;42.656;23.374;2023-06-22T01:12:04;11.00;;;7.93;;
10461;SDS011;5278;42.656;23.374;2023-06-22T01:14:35;10.07;;;7.77;;
10461;SDS011;5278;42.656;23.374;2023-06-22T01:17:07;7.93;;;7.23;;
10461;SDS011;5278;42.656;23.374;2023-06-22T01:19:35;9.10;;;7.63;;
10461;SDS011;5278;42.656;23.374;2023-06-22T01:22:09;9.37;;;8.47;;
10461;SDS011;5278;42.656;23.374;2023-06-22T01:24:45;9.07;;;8.13;;
10461;SDS011;5278;42.656;23.374;2023-06-22T01:27:31;10.33;;;8.23;;
10461;SDS011;5278;42.656;23.374;2023-06-22T01:30:08;9.10;;;7.33;;
10461;SDS011;5278;42.656;23.374;2023-06-22T01:32:37;8.43;;;7.63;;
10461;SDS011;5278;42.656;23.374;2023-06-22T01:35:07;9.97;;;8.97;;
10461;SDS011;5278;42.656;23.374;2023-06-22T01:37:36;9.20;;;8.33;;
10461;SDS011;5278;42.656;23.374;2023-06-22T01:40:04;9.23;;;8.17;;
10461;SDS011;5278;42.656;23.374;2023-06-22T01:42:33;9.93;;;8.30;;
10461;SDS011;5278;42.656;23.374;2023-06-22T01:45:03;10.47;;;8.23;;
10461;SDS011;5278;42.656;23.374;2023-06-22T01:47:32;10.63;;;9.00;;
10461;SDS011;5278;42.656;23.374;2023-06-22T01:50:00;10.07;;;8.10;;
10461;SDS011;5278;42.656;23.374;2023-06-22T01:52:28;9.83;;;8.50;;
10461;SDS011;5278;42.656;23.374;2023-06-22T01:54:55;9.40;;;8.50;;
10461;SDS011;5278;42.656;23.374;2023-06-22T01:57:23;9.37;;;8.47;;
10461;SDS011;5278;42.656;23.374;2023-06-22T01:59:53;9.67;;;8.67;;
10461;SDS011;5278;42.656;23.374;2023-06-22T02:02:27;9.20;;;8.30;;
10461;SDS011;5278;42.656;23.374;2023-06-22T02:05:01;10.37;;;9.30;;
10461;SDS011;5278;42.656;23.374;2023-06-22T02:07:33;10.43;;;9.03;;
10461;SDS011;5278;42.656;23.374;2023-06-22T02:10:06;11.07;;;8.63;;
10461;SDS011;5278;42.656;23.374;2023-06-22T02:12:38;9.73;;;8.67;;
10461;SDS011;5278;42.656;23.374;2023-06-22T02:15:07;9.17;;;8.30;;
10461;SDS011;5278;42.656;23.374;2023-06-22T02:17:37;9.43;;;8.53;;
10461;SDS011;5278;42.656;23.374;2023-06-22T02:20:13;10.47;;;8.60;;
10461;SDS011;5278;42.656;23.374;2023-06-22T02:22:41;11.03;;;8.97;;
10461;SDS011;5278;42.656;23.374;2023-06-22T02:25:09;11.37;;;8.50;;
10461;SDS011;5278;42.656;23.374;2023-06-22T02:27:36;14.17;;;9.30;;
10461;SDS011;5278;42.656;23.374;2023-06-22T02:30:06;9.30;;;8.40;;
10461;SDS011;5278;42.656;23.374;2023-06-22T02:32:34;9.47;;;8.53;;
10461;SDS011;5278;42.656;23.374;2023-06-22T02:35:01;9.03;;;8.13;;
10461;SDS011;5278;42.656;23.374;2023-06-22T02:37:34;13.03;;;8.27;;
10461;SDS011;5278;42.656;23.374;2023-06-22T02:40:04;10.30;;;9.23;;
10461;SDS011;5278;42.656;23.374;2023-06-22T02:42:33;9.23;;;8.33;;
10461;SDS011;5278;42.656;23.374;2023-06-22T02:44:59;10.73;;;9.60;;
10461;SDS011;5278;42.656;23.374;2023-06-22T02:47:26;9.97;;;8.70;;
10461;SDS011;5278;42.656;23.374;2023-06-22T02:49:55;9.30;;;8.30;;
10461;SDS011;5278;42.656;23.374;2023-06-22T02:52:22;9.30;;;7.57;;
10461;SDS011;5278;42.656;23.374;2023-06-22T02:54:51;8.50;;;7.70;;
10461;SDS011;5278;42.656;23.374;2023-06-22T02:57:19;9.50;;;8.50;;
10461;SDS011;5278;42.656;23.374;2023-06-22T02:59:46;13.50;;;9.10;;
10461;SDS011;5278;42.656;23.374;2023-06-22T03:02:13;13.70;;;9.40;;
10461;SDS011;5278;42.656;23.374;2023-06-22T03:04:42;9.93;;;8.27;;
10461;SDS011;5278;42.656;23.374;2023-06-22T03:07:10;15.10;;;9.87;;
10461;SDS011;5278;42.656;23.374;2023-06-22T03:09:37;9.93;;;8.53;;
10461;SDS011;5278;42.656;23.374;2023-06-22T03:12:05;11.17;;;9.37;;
10461;SDS011;5278;42.656;23.374;2023-06-22T03:14:33;10.70;;;9.37;;
10461;SDS011;5278;42.656;23.374;2023-06-22T03:17:02;10.47;;;9.47;;
10461;SDS011;5278;42.656;23.374;2023-06-22T03:19:31;10.47;;;8.70;;
10461;SDS011;5278;42.656;23.374;2023-06-22T03:21:59;10.27;;;8.90;;
10461;SDS011;5278;42.656;23.374;2023-06-22T03:24:26;10.03;;;8.90;;
10461;SDS011;5278;42.656;23.374;2023-06-22T03:26:55;9.77;;;8.77;;
10461;SDS011;5278;42.656;23.374;2023-06-22T03:29:23;11.70;;;9.23;;
10461;SDS011;5278;42.656;23.374;2023-06-22T03:31:50;9.80;;;8.40;;
10461;SDS011;5278;42.656;23.374;2023-06-22T03:34:17;10.77;;;8.53;;
10461;SDS011;5278;42.656;23.374;2023-06-22T03:36:44;12.57;;;8.33;;
10461;SDS011;5278;42.656;23.374;2023-06-22T03:39:11;9.60;;;8.70;;
10461;SDS011;5278;42.656;23.374;2023-06-22T03:41:38;11.70;;;8.70;;
10461;SDS011;5278;42.656;23.374;2023-06-22T03:44:05;9.70;;;8.43;;
10461;SDS011;5278;42.656;23.374;2023-06-22T03:46:37;15.50;;;9.27;;
10461;SDS011;5278;42.656;23.374;2023-06-22T03:49:04;11.37;;;9.43;;
10461;SDS011;5278;42.656;23.374;2023-06-22T03:51:32;13.33;;;10.63;;
10461;SDS011;5278;42.656;23.374;2023-06-22T03:53:59;14.57;;;13.03;;
10461;SDS011;5278;42.656;23.374;2023-06-22T03:56:28;12.53;;;9.90;;
10461;SDS011;5278;42.656;23.374;2023-06-22T03:58:55;14.23;;;10.30;;
10461;SDS011;5278;42.656;23.374;2023-06-22T04:01:23;11.17;;;9.60;;
10461;SDS011;5278;42.656;23.374;2023-06-22T04:03:51;9.80;;;8.87;;
10461;SDS011;5278;42.656;23.374;2023-06-22T04:06:18;9.47;;;8.50;;
10461;SDS011;5278;42.656;23.374;2023-06-22T04:08:45;9.77;;;8.73;;
10461;SDS011;5278;42.656;23.374;2023-06-22T04:11:15;10.30;;;9.30;;
10461;SDS011;5278;42.656;23.374;2023-06-22T04:13:43;11.40;;;8.97;;
10461;SDS011;5278;42.656;23.374;2023-06-22T04:16:10;13.30;;;10.80;;
10461;SDS011;5278;42.656;23.374;2023-06-22T04:18:37;10.33;;;9.23;;
10461;SDS011;5278;42.656;23.374;2023-06-22T04:21:05;11.67;;;10.40;;
10461;SDS011;5278;42.656;23.374;2023-06-22T04:23:32;16.07;;;10.97;;
10461;SDS011;5278;42.656;23.374;2023-06-22T04:26:01;15.73;;;10.87;;
10461;SDS011;5278;42.656;23.374;2023-06-22T04:28:28;18.90;;;11.13;;
10461;SDS011;5278;42.656;23.374;2023-06-22T04:31:00;13.97;;;11.50;;
10461;SDS011;5278;42.656;23.374;2023-06-22T04:33:27;12.47;;;11.17;;
10461;SDS011;5278;42.656;23.374;2023-06-22T04:35:54;16.10;;;11.93;;
10461;SDS011;5278;42.656;23.374;2023-06-22T04:38:24;13.73;;;11.70;;
10461;SDS011;5278;42.656;23.374;2023-06-22T04:40:52;13.10;;;11.27;;
10461;SDS011;5278;42.656;23.374;2023-06-22T04:43:19;14.33;;;12.30;;
10461;SDS011;5278;42.656;23.374;2023-06-22T04:45:46;11.73;;;10.53;;
10461;SDS011;5278;42.656;23.374;2023-06-22T04:48:17;13.83;;;12.40;;
10461;SDS011;5278;42.656;23.374;2023-06-22T04:50:44;13.77;;;11.73;;
10461;SDS011;5278;42.656;23.374;2023-06-22T04:53:12;17.83;;;12.90;;
10461;SDS011;5278;42.656;23.374;2023-06-22T04:55:48;16.20;;;11.90;;
10461;SDS011;5278;42.656;23.374;2023-06-22T04:58:18;15.07;;;10.70;;
10461;SDS011;5278;42.656;23.374;2023-06-22T05:00:46;12.17;;;10.83;;
10461;SDS011;5278;42.656;23.374;2023-06-22T05:03:17;13.90;;;10.83;;
10461;SDS011;5278;42.656;23.374;2023-06-22T05:05:44;12.87;;;11.40;;
10461;SDS011;5278;42.656;23.374;2023-06-22T05:08:12;12.73;;;11.43;;
10461;SDS011;5278;42.656;23.374;2023-06-22T05:10:41;14.80;;;11.33;;
10461;SDS011;5278;42.656;23.374;2023-06-22T05:13:08;12.67;;;11.47;;
10461;SDS011;5278;42.656;23.374;2023-06-22T05:15:35;14.13;;;11.90;;
10461;SDS011;5278;42.656;23.374;2023-06-22T05:18:05;11.70;;;10.47;;
10461;SDS011;5278;42.656;23.374;2023-06-22T05:20:32;13.13;;;11.60;;
10461;SDS011;5278;42.656;23.374;2023-06-22T05:23:01;16.40;;;11.27;;
10461;SDS011;5278;42.656;23.374;2023-06-22T05:25:28;17.50;;;12.40;;
10461;SDS011;5278;42.656;23.374;2023-06-22T05:27:59;13.17;;;11.10;;
10461;SDS011;5278;42.656;23.374;2023-06-22T05:30:26;15.17;;;11.50;;
10461;SDS011;5278;42.656;23.374;2023-06-22T05:32:54;12.07;;;10.77;;
10461;SDS011;5278;42.656;23.374;2023-06-22T05:35:21;12.10;;;10.90;;
10461;SDS011;5278;42.656;23.374;2023-06-22T05:37:49;11.97;;;10.70;;
10461;SDS011;5278;42.656;23.374;2023-06-22T05:40:16;12.30;;;10.70;;
10461;SDS011;5278;42.656;23.374;2023-06-22T05:42:43;12.27;;;11.00;;
10461;SDS011;5278;42.656;23.374;2023-06-22T05:45:13;11.80;;;10.80;;
10461;SDS011;5278;42.656;23.374;2023-06-22T05:47:40;12.10;;;10.87;;
10461;SDS011;5278;42.656;23.374;2023-06-22T05:50:08;13.27;;;11.27;;
10461;SDS011;5278;42.656;23.374;2023-06-22T05:52:35;14.20;;;11.37;;
10461;SDS011;5278;42.656;23.374;2023-06-22T05:55:02;12.53;;;11.23;;
10461;SDS011;5278;42.656;23.374;2023-06-22T05:57:30;12.27;;;11.03;;
10461;SDS011;5278;42.656;23.374;2023-06-22T05:59:57;14.67;;;12.00;;
10461;SDS011;5278;42.656;23.374;2023-06-22T06:02:25;12.75;;;11.25;;
10461;SDS011;5278;42.656;23.374;2023-06-22T06:04:52;11.90;;;10.43;;
10461;SDS011;5278;42.656;23.374;2023-06-22T06:07:20;14.77;;;12.25;;
10461;SDS011;5278;42.656;23.374;2023-06-22T06:09:49;19.73;;;11.93;;
10461;SDS011;5278;42.656;23.374;2023-06-22T06:12:16;14.45;;;11.55;;
10461;SDS011;5278;42.656;23.374;2023-06-22T06:14:43;17.80;;;11.85;;
10461;SDS011;5278;42.656;23.374;2023-06-22T06:17:10;14.00;;;11.35;;
10461;SDS011;5278;42.656;23.374;2023-06-22T06:19:42;13.95;;;10.70;;
10461;SDS011;5278;42.656;23.374;2023-06-22T06:22:09;19.35;;;12.38;;
10461;SDS011;5278;42.656;23.374;2023-06-22T06:24:36;12.43;;;11.20;;
10461;SDS011;5278;42.656;23.374;2023-06-22T06:27:03;14.63;;;11.65;;
10461;SDS011;5278;42.656;23.374;2023-06-22T06:29:31;14.75;;;11.05;;
10461;SDS011;5278;42.656;23.374;2023-06-22T06:31:58;13.15;;;10.35;;
10461;SDS011;5278;42.656;23.374;2023-06-22T06:34:24;13.95;;;10.52;;
10461;SDS011;5278;42.656;23.374;2023-06-22T06:36:53;11.35;;;10.15;;
10461;SDS011;5278;42.656;23.374;2023-06-22T06:39:19;8.82;;;7.90;;
10461;SDS011;5278;42.656;23.374;2023-06-22T06:41:46;12.18;;;9.85;;
10461;SDS011;5278;42.656;23.374;2023-06-22T06:44:13;10.90;;;9.88;;
10461;SDS011;5278;42.656;23.374;2023-06-22T06:46:40;10.73;;;9.63;;
10461;SDS011;5278;42.656;23.374;2023-06-22T06:49:07;9.73;;;8.82;;
10461;SDS011;5278;42.656;23.374;2023-06-22T06:51:34;11.13;;;9.52;;
10461;SDS011;5278;42.656;23.374;2023-06-22T06:54:03;11.65;;;10.45;;
10461;SDS011;5278;42.656;23.374;2023-06-22T06:56:30;11.10;;;10.10;;
10461;SDS011;5278;42.656;23.374;2023-06-22T06:58:59;12.35;;;10.20;;
10461;SDS011;5278;42.656;23.374;2023-06-22T07:01:26;11.35;;;9.88;;
10461;SDS011;5278;42.656;23.374;2023-06-22T07:03:58;14.30;;;9.77;;
10461;SDS011;5278;42.656;23.374;2023-06-22T07:06:25;15.98;;;10.02;;
10461;SDS011;5278;42.656;23.374;2023-06-22T07:08:57;11.07;;;9.70;;
10461;SDS011;5278;42.656;23.374;2023-06-22T07:11:27;11.32;;;8.93;;
10461;SDS011;5278;42.656;23.374;2023-06-22T07:13:56;11.57;;;9.05;;
10461;SDS011;5278;42.656;23.374;2023-06-22T07:16:23;11.50;;;9.77;;
10461;SDS011;5278;42.656;23.374;2023-06-22T07:18:55;11.73;;;9.68;;
10461;SDS011;5278;42.656;23.374;2023-06-22T07:21:22;10.85;;;9.68;;
10461;SDS011;5278;42.656;23.374;2023-06-22T07:23:49;9.75;;;8.75;;
10461;SDS011;5278;42.656;23.374;2023-06-22T07:26:16;13.65;;;10.10;;
10461;SDS011;5278;42.656;23.374;2023-06-22T07:28:46;10.27;;;9.27;;
10461;SDS011;5278;42.656;23.374;2023-06-22T07:31:15;9.10;;;8.20;;
10461;SDS011;5278;42.656;23.374;2023-06-22T07:33:43;11.70;;;8.68;;
10461;SDS011;5278;42.656;23.374;2023-06-22T07:36:10;10.80;;;9.32;;
10461;SDS011;5278;42.656;23.374;2023-06-22T07:38:38;10.13;;;9.02;;
10461;SDS011;5278;42.656;23.374;2023-06-22T07:41:05;12.57;;;10.55;;
10461;SDS011;5278;42.656;23.374;2023-06-22T07:43:32;10.20;;;8.75;;
10461;SDS011;5278;42.656;23.374;2023-06-22T07:46:03;9.43;;;8.52;;
10461;SDS011;5278;42.656;23.374;2023-06-22T07:48:30;11.65;;;10.13;;
10461;SDS011;5278;42.656;23.374;2023-06-22T07:50:59;12.88;;;10.75;;
10461;SDS011;5278;42.656;23.374;2023-06-22T07:53:26;13.07;;;10.68;;
10461;SDS011;5278;42.656;23.374;2023-06-22T07:55:53;14.38;;;9.70;;
10461;SDS011;5278;42.656;23.374;2023-06-22T07:58:20;13.18;;;10.15;;
10461;SDS011;5278;42.656;23.374;2023-06-22T08:00:49;12.00;;;9.98;;
10461;SDS011;5278;42.656;23.374;2023-06-22T08:03:18;13.90;;;10.23;;
10461;SDS011;5278;42.656;23.374;2023-06-22T08:05:45;11.27;;;9.35;;
10461;SDS011;5278;42.656;23.374;2023-06-22T08:08:14;10.85;;;8.85;;
10461;SDS011;5278;42.656;23.374;2023-06-22T08:10:41;14.75;;;12.43;;
10461;SDS011;5278;42.656;23.374;2023-06-22T08:13:09;11.88;;;10.52;;
10461;SDS011;5278;42.656;23.374;2023-06-22T08:15:36;14.98;;;11.80;;
10461;SDS011;5278;42.656;23.374;2023-06-22T08:18:03;17.67;;;10.70;;
10461;SDS011;5278;42.656;23.374;2023-06-22T08:20:33;17.02;;;12.23;;
10461;SDS011;5278;42.656;23.374;2023-06-22T08:23:00;11.95;;;10.88;;
10461;SDS011;5278;42.656;23.374;2023-06-22T08:25:31;10.77;;;9.85;;
10461;SDS011;5278;42.656;23.374;2023-06-22T08:28:00;13.95;;;10.43;;
10461;SDS011;5278;42.656;23.374;2023-06-22T08:30:27;14.10;;;10.90;;
10461;SDS011;5278;42.656;23.374;2023-06-22T08:32:54;13.82;;;12.02;;
10461;SDS011;5278;42.656;23.374;2023-06-22T08:35:21;14.98;;;10.93;;
10461;SDS011;5278;42.656;23.374;2023-06-22T08:37:53;13.38;;;9.85;;
10461;SDS011;5278;42.656;23.374;2023-06-22T08:40:21;11.35;;;10.20;;
10461;SDS011;5278;42.656;23.374;2023-06-22T08:42:49;15.98;;;12.07;;
10461;SDS011;5278;42.656;23.374;2023-06-22T08:45:16;14.20;;;10.68;;
10461;SDS011;5278;42.656;23.374;2023-06-22T08:47:44;13.05;;;11.48;;
10461;SDS011;5278;42.656;23.374;2023-06-22T08:50:11;12.20;;;10.93;;
10461;SDS011;5278;42.656;23.374;2023-06-22T08:52:39;13.32;;;11.93;;
10461;SDS011;5278;42.656;23.374;2023-06-22T08:55:09;17.05;;;15.25;;
10461;SDS011;5278;42.656;23.374;2023-06-22T08:57:36;23.55;;;20.17;;
10461;SDS011;5278;42.656;23.374;2023-06-22T09:00:05;11.10;;;9.90;;
10461;SDS011;5278;42.656;23.374;2023-06-22T09:02:42;12.10;;;11.00;;
10461;SDS011;5278;42.656;23.374;2023-06-22T09:05:09;16.48;;;11.43;;
10461;SDS011;5278;42.656;23.374;2023-06-22T09:07:36;10.48;;;9.48;;
10461;SDS011;5278;42.656;23.374;2023-06-22T09:10:03;12.02;;;10.77;;
10461;SDS011;5278;42.656;23.374;2023-06-22T09:12:33;16.90;;;11.73;;
10461;SDS011;5278;42.656;23.374;2023-06-22T09:15:03;12.77;;;11.45;;
10461;SDS011;5278;42.656;23.374;2023-06-22T09:17:32;11.48;;;10.38;;
10461;SDS011;5278;42.656;23.374;2023-06-22T09:20:03;10.85;;;9.77;;
10461;SDS011;5278;42.656;23.374;2023-06-22T09:22:32;11.25;;;9.82;;
10461;SDS011;5278;42.656;23.374;2023-06-22T09:24:59;13.20;;;11.15;;
10461;SDS011;5278;42.656;23.374;2023-06-22T09:27:26;10.00;;;8.93;;
10461;SDS011;5278;42.656;23.374;2023-06-22T09:29:55;8.73;;;7.93;;
10461;SDS011;5278;42.656;23.374;2023-06-22T09:32:23;8.35;;;7.55;;
10461;SDS011;5278;42.656;23.374;2023-06-22T09:34:52;9.23;;;8.35;;
10461;SDS011;5278;42.656;23.374;2023-06-22T09:37:19;8.73;;;7.90;;
10461;SDS011;5278;42.656;23.374;2023-06-22T09:39:45;8.75;;;8.05;;
10461;SDS011;5278;42.656;23.374;2023-06-22T09:42:12;9.00;;;8.20;;
10461;SDS011;5278;42.656;23.374;2023-06-22T09:44:39;9.77;;;8.65;;
10461;SDS011;5278;42.656;23.374;2023-06-22T09:47:08;10.30;;;8.98;;
10461;SDS011;5278;42.656;23.374;2023-06-22T09:49:36;11.90;;;8.90;;
10461;SDS011;5278;42.656;23.374;2023-06-22T09:52:04;11.20;;;9.35;;
10461;SDS011;5278;42.656;23.374;2023-06-22T09:54:32;10.32;;;9.30;;
10461;SDS011;5278;42.656;23.374;2023-06-22T09:56:59;9.98;;;9.07;;
10461;SDS011;5278;42.656;23.374;2023-06-22T09:59:26;9.35;;;8.68;;
10461;SDS011;5278;42.656;23.374;2023-06-22T10:01:54;10.65;;;9.75;;
10461;SDS011;5278;42.656;23.374;2023-06-22T10:04:22;10.95;;;8.88;;
10461;SDS011;5278;42.656;23.374;2023-06-22T10:06:49;9.43;;;8.63;;
10461;SDS011;5278;42.656;23.374;2023-06-22T10:09:16;10.20;;;9.38;;
10461;SDS011;5278;42.656;23.374;2023-06-22T10:11:45;11.30;;;10.18;;
10461;SDS011;5278;42.656;23.374;2023-06-22T10:14:11;11.18;;;10.18;;
10461;SDS011;5278;42.656;23.374;2023-06-22T10:16:38;10.15;;;9.15;;
10461;SDS011;5278;42.656;23.374;2023-06-22T10:19:06;11.02;;;10.07;;
10461;SDS011;5278;42.656;23.374;2023-06-22T10:21:35;11.65;;;9.68;;
10461;SDS011;5278;42.656;23.374;2023-06-22T10:24:04;12.02;;;10.82;;
10461;SDS011;5278;42.656;23.374;2023-06-22T10:26:36;11.32;;;10.23;;
10461;SDS011;5278;42.656;23.374;2023-06-22T10:29:03;13.13;;;10.18;;
10461;SDS011;5278;42.656;23.374;2023-06-22T10:31:31;12.15;;;9.77;;
10461;SDS011;5278;42.656;23.374;2023-06-22T10:33:58;8.88;;;8.10;;
10461;SDS011;5278;42.656;23.374;2023-06-22T10:36:26;8.40;;;7.70;;
10461;SDS011;5278;42.656;23.374;2023-06-22T10:38:54;9.98;;;8.23;;
10461;SDS011;5278;42.656;23.374;2023-06-22T10:41:24;9.32;;;8.50;;
10461;SDS011;5278;42.656;23.374;2023-06-22T10:43:54;9.73;;;8.90;;
10461;SDS011;5278;42.656;23.374;2023-06-22T10:46:23;9.45;;;8.10;;
10461;SDS011;5278;42.656;23.374;2023-06-22T10:48:51;9.70;;;8.90;;
10461;SDS011;5278;42.656;23.374;2023-06-22T10:51:20;8.63;;;7.85;;
10461;SDS011;5278;42.656;23.374;2023-06-22T10:53:47;19.77;;;17.98;;
10461;SDS011;5278;42.656;23.374;2023-06-22T10:56:17;10.65;;;9.50;;
10461;SDS011;5278;42.656;23.374;2023-06-22T10:58:44;8.23;;;7.53;;
10461;SDS011;5278;42.656;23.374;2023-06-22T11:01:11;8.35;;;7.68;;
10461;SDS011;5278;42.656;23.374;2023-06-22T11:03:38;9.48;;;8.52;;
10461;SDS011;5278;42.656;23.374;2023-06-22T11:06:07;9.05;;;8.30;;
10461;SDS011;5278;42.656;23.374;2023-06-22T11:08:34;8.95;;;8.15;;
10461;SDS011;5278;42.656;23.374;2023-06-22T11:11:01;8.88;;;8.07;;
10461;SDS011;5278;42.656;23.374;2023-06-22T11:13:30;8.13;;;7.43;;
10461;SDS011;5278;42.656;23.374;2023-06-22T11:15:57;8.75;;;7.93;;
10461;SDS011;5278;42.656;23.374;2023-06-22T11:18:24;9.70;;;8.75;;
10461;SDS011;5278;42.656;23.374;2023-06-22T11:20:51;8.77;;;7.97;;
10461;SDS011;5278;42.656;23.374;2023-06-22T11:23:18;8.98;;;8.27;;
10461;SDS011;5278;42.656;23.374;2023-06-22T11:25:45;8.27;;;7.57;;
10461;SDS011;5278;42.656;23.374;2023-06-22T11:28:12;8.40;;;7.63;;
10461;SDS011;5278;42.656;23.374;2023-06-22T11:30:43;7.80;;;7.07;;
10461;SDS011;5278;42.656;23.374;2023-06-22T11:33:10;11.07;;;7.93;;
10461;SDS011;5278;42.656;23.374;2023-06-22T11:35:37;8.55;;;7.85;;
10461;SDS011;5278;42.656;23.374;2023-06-22T11:38:04;8.57;;;7.75;;
10461;SDS011;5278;42.656;23.374;2023-06-22T11:40:32;8.95;;;8.05;;
10461;SDS011;5278;42.656;23.374;2023-06-22T11:42:59;8.05;;;7.35;;
10461;SDS011;5278;42.656;23.374;2023-06-22T11:45:26;8.55;;;7.85;;
10461;SDS011;5278;42.656;23.374;2023-06-22T11:47:54;8.77;;;7.85;;
10461;SDS011;5278;42.656;23.374;2023-06-22T11:50:21;14.52;;;11.95;;
10461;SDS011;5278;42.656;23.374;2023-06-22T11:52:48;8.65;;;7.88;;
10461;SDS011;5278;42.656;23.374;2023-06-22T11:55:15;8.40;;;7.63;;
10461;SDS011;5278;42.656;23.374;2023-06-22T11:57:54;8.10;;;7.30;;
10461;SDS011;5278;42.656;23.374;2023-06-22T12:00:24;9.10;;;8.27;;
10461;SDS011;5278;42.656;23.374;2023-06-22T12:02:51;7.57;;;6.97;;
10461;SDS011;5278;42.656;23.374;2023-06-22T12:05:20;7.90;;;7.20;;
10461;SDS011;5278;42.656;23.374;2023-06-22T12:07:49;8.43;;;7.60;;
10461;SDS011;5278;42.656;23.374;2023-06-22T12:10:16;8.68;;;7.93;;
10461;SDS011;5278;42.656;23.374;2023-06-22T12:12:42;8.55;;;7.60;;
10461;SDS011;5278;42.656;23.374;2023-06-22T12:15:10;9.13;;;8.32;;
10461;SDS011;5278;42.656;23.374;2023-06-22T12:17:37;8.30;;;7.55;;
10461;SDS011;5278;42.656;23.374;2023-06-22T12:20:06;9.05;;;7.57;;
10461;SDS011;5278;42.656;23.374;2023-06-22T12:22:37;8.52;;;7.63;;
10461;SDS011;5278;42.656;23.374;2023-06-22T12:25:05;9.20;;;8.30;;
10461;SDS011;5278;42.656;23.374;2023-06-22T12:27:34;8.82;;;7.97;;
10461;SDS011;5278;42.656;23.374;2023-06-22T12:30:02;12.32;;;8.32;;
10461;SDS011;5278;42.656;23.374;2023-06-22T12:32:31;9.63;;;8.68;;
10461;SDS011;5278;42.656;23.374;2023-06-22T12:34:58;10.53;;;8.70;;
10461;SDS011;5278;42.656;23.374;2023-06-22T12:37:25;10.60;;;7.97;;
10461;SDS011;5278;42.656;23.374;2023-06-22T12:39:54;12.63;;;8.57;;
10461;SDS011;5278;42.656;23.374;2023-06-22T12:42:22;10.60;;;8.80;;
10461;SDS011;5278;42.656;23.374;2023-06-22T12:44:53;9.63;;;8.73;;
10461;SDS011;5278;42.656;23.374;2023-06-22T12:47:20;9.60;;;8.60;;
10461;SDS011;5278;42.656;23.374;2023-06-22T12:49:47;11.63;;;8.67;;
10461;SDS011;5278;42.656;23.374;2023-06-22T12:52:14;9.37;;;8.43;;
10461;SDS011;5278;42.656;23.374;2023-06-22T12:54:41;9.83;;;8.90;;
10461;SDS011;5278;42.656;23.374;2023-06-22T12:57:10;9.73;;;8.83;;
10461;SDS011;5278;42.656;23.374;2023-06-22T12:59:38;11.20;;;10.10;;
10461;SDS011;5278;42.656;23.374;2023-06-22T13:02:06;9.57;;;8.67;;
10461;SDS011;5278;42.656;23.374;2023-06-22T13:04:33;10.10;;;8.93;;
10461;SDS011;5278;42.656;23.374;2023-06-22T13:07:00;12.47;;;8.87;;
10461;SDS011;5278;42.656;23.374;2023-06-22T13:09:27;11.03;;;9.30;;
10461;SDS011;5278;42.656;23.374;2023-06-22T13:11:54;10.93;;;8.63;;
10461;SDS011;5278;42.656;23.374;2023-06-22T13:14:22;13.87;;;9.37;;
10461;SDS011;5278;42.656;23.374;2023-06-22T13:16:49;13.10;;;9.07;;
10461;SDS011;5278;42.656;23.374;2023-06-22T13:19:16;9.57;;;8.57;;
10461;SDS011;5278;42.656;23.374;2023-06-22T13:21:43;13.03;;;9.63;;
10461;SDS011;5278;42.656;23.374;2023-06-22T13:24:10;11.13;;;9.63;;
10461;SDS011;5278;42.656;23.374;2023-06-22T13:26:37;10.87;;;9.60;;
10461;SDS011;5278;42.656;23.374;2023-06-22T13:29:04;10.23;;;8.97;;
10461;SDS011;5278;42.656;23.374;2023-06-22T13:31:33;9.90;;;8.90;;
10461;SDS011;5278;42.656;23.374;2023-06-22T13:34:00;11.40;;;9.10;;
10461;SDS011;5278;42.656;23.374;2023-06-22T13:36:27;10.63;;;9.10;;
10461;SDS011;5278;42.656;23.374;2023-06-22T13:38:56;11.33;;;9.10;;
10461;SDS011;5278;42.656;23.374;2023-06-22T13:41:23;11.57;;;9.20;;
10461;SDS011;5278;42.656;23.374;2023-06-22T13:43:50;18.23;;;12.83;;
10461;SDS011;5278;42.656;23.374;2023-06-22T13:46:17;14.00;;;9.87;;
10461;SDS011;5278;42.656;23.374;2023-06-22T13:48:46;10.57;;;9.43;;
10461;SDS011;5278;42.656;23.374;2023-06-22T13:51:13;10.77;;;9.67;;
10461;SDS011;5278;42.656;23.374;2023-06-22T13:53:40;10.10;;;9.13;;
10461;SDS011;5278;42.656;23.374;2023-06-22T13:56:07;12.50;;;9.43;;
10461;SDS011;5278;42.656;23.374;2023-06-22T13:58:34;10.50;;;8.97;;
10461;SDS011;5278;42.656;23.374;2023-06-22T14:01:09;11.90;;;10.60;;
10461;SDS011;5278;42.656;23.374;2023-06-22T14:03:36;12.40;;;9.57;;
10461;SDS011;5278;42.656;23.374;2023-06-22T14:06:04;15.83;;;10.50;;
10461;SDS011;5278;42.656;23.374;2023-06-22T14:08:31;17.33;;;10.13;;
10461;SDS011;5278;42.656;23.374;2023-06-22T14:11:00;13.47;;;9.23;;
10461;SDS011;5278;42.656;23.374;2023-06-22T14:13:28;13.23;;;9.07;;
10461;SDS011;5278;42.656;23.374;2023-06-22T14:15:54;11.53;;;9.73;;
10461;SDS011;5278;42.656;23.374;2023-06-22T14:18:22;10.77;;;9.67;;
10461;SDS011;5278;42.656;23.374;2023-06-22T14:20:49;10.87;;;9.60;;
10461;SDS011;5278;42.656;23.374;2023-06-22T14:23:19;12.50;;;8.83;;
10461;SDS011;5278;42.656;23.374;2023-06-22T14:25:46;10.90;;;8.90;;
10461;SDS011;5278;42.656;23.374;2023-06-22T14:28:13;12.10;;;8.90;;
10461;SDS011;5278;42.656;23.374;2023-06-22T14:30:41;11.27;;;9.13;;
10461;SDS011;5278;42.656;23.374;2023-06-22T14:33:08;10.43;;;8.77;;
10461;SDS011;5278;42.656;23.374;2023-06-22T14:35:35;10.80;;;8.57;;
10461;SDS011;5278;42.656;23.374;2023-06-22T14:38:02;12.20;;;9.43;;
10461;SDS011;5278;42.656;23.374;2023-06-22T14:40:31;11.70;;;10.30;;